sensor_id;sensor_type;location;lat;lon;timestamp;temperature;humidity
15646;DHT22;7922;43.622;1.476;2022-09-19T00:00:42;13.10;99.90
15646;DHT22;7922;43.622;1.476;2022-09-19T00:03:09;13.00;99.90
15646;DHT22;7922;43.622;1.476;2022-09-19T00:05:40;13.00;99.90
15646;DHT22;7922;43.622;1.476;2022-09-19T00:08:06;13.00;99.90
15646;DHT22;7922;43.622;1.476;2022-09-19T00:10:40;13.00;99.90
15646;DHT22;7922;43.622;1.476;2022-09-19T00:13:07;13.00;99.90
15646;DHT22;7922;43.622;1.476;2022-09-19T00:15:45;13.00;99.90
15646;DHT22;7922;43.622;1.476;2022-09-19T00:18:11;13.00;99.90
15646;DHT22;7922;43.622;1.476;2022-09-19T00:20:43;13.00;99.90
15646;DHT22;7922;43.622;1.476;2022-09-19T00:23:10;13.00;99.90
15646;DHT22;7922;43.622;1.476;2022-09-19T00:26:04;13.00;99.90
15646;DHT22;7922;43.622;1.476;2022-09-19T00:28:30;12.90;99.90
15646;DHT22;7922;43.622;1.476;2022-09-19T00:30:57;12.90;99.90
15646;DHT22;7922;43.622;1.476;2022-09-19T00:33:24;12.90;99.90
15646;DHT22;7922;43.622;1.476;2022-09-19T00:35:54;12.80;99.90
15646;DHT22;7922;43.622;1.476;2022-09-19T00:38:25;12.70;99.90
15646;DHT22;7922;43.622;1.476;2022-09-19T00:40:52;12.70;99.90
15646;DHT22;7922;43.622;1.476;2022-09-19T00:43:19;12.70;99.90
15646;DHT22;7922;43.622;1.476;2022-09-19T00:45:46;12.70;99.90
15646;DHT22;7922;43.622;1.476;2022-09-19T00:48:14;12.70;99.90
15646;DHT22;7922;43.622;1.476;2022-09-19T00:50:44;12.70;99.90
15646;DHT22;7922;43.622;1.476;2022-09-19T00:53:16;12.60;99.90
15646;DHT22;7922;43.622;1.476;2022-09-19T00:55:43;12.70;99.90
15646;DHT22;7922;43.622;1.476;2022-09-19T01:00:35;12.60;99.90
15646;DHT22;7922;43.622;1.476;2022-09-19T01:03:06;12.60;99.90
15646;DHT22;7922;43.622;1.476;2022-09-19T01:14:01;12.60;99.90
15646;DHT22;7922;43.622;1.476;2022-09-19T01:27:19;12.50;99.90
15646;DHT22;7922;43.622;1.476;2022-09-19T01:30:06;12.50;99.90
15646;DHT22;7922;43.622;1.476;2022-09-19T01:32:42;12.40;99.90
15646;DHT22;7922;43.622;1.476;2022-09-19T01:35:13;12.40;99.90
15646;DHT22;7922;43.622;1.476;2022-09-19T01:37:51;12.40;99.90
15646;DHT22;7922;43.622;1.476;2022-09-19T01:40:19;12.40;99.90
15646;DHT22;7922;43.622;1.476;2022-09-19T01:42:51;12.30;99.90
15646;DHT22;7922;43.622;1.476;2022-09-19T01:45:25;12.20;99.90
15646;DHT22;7922;43.622;1.476;2022-09-19T01:48:03;12.20;99.90
15646;DHT22;7922;43.622;1.476;2022-09-19T01:59:17;12.20;99.90
15646;DHT22;7922;43.622;1.476;2022-09-19T02:02:14;12.10;99.90
15646;DHT22;7922;43.622;1.476;2022-09-19T02:10:13;12.10;99.90
15646;DHT22;7922;43.622;1.476;2022-09-19T02:12:41;12.10;99.90
15646;DHT22;7922;43.622;1.476;2022-09-19T02:15:08;12.00;99.90
15646;DHT22;7922;43.622;1.476;2022-09-19T02:17:41;12.00;99.90
15646;DHT22;7922;43.622;1.476;2022-09-19T02:20:19;11.90;99.90
15646;DHT22;7922;43.622;1.476;2022-09-19T02:22:51;11.80;99.90
15646;DHT22;7922;43.622;1.476;2022-09-19T02:25:26;11.80;99.90
15646;DHT22;7922;43.622;1.476;2022-09-19T02:28:05;11.90;99.90
15646;DHT22;7922;43.622;1.476;2022-09-19T02:30:32;11.90;99.90
15646;DHT22;7922;43.622;1.476;2022-09-19T02:32:58;11.90;99.90
15646;DHT22;7922;43.622;1.476;2022-09-19T02:35:41;11.80;99.90
15646;DHT22;7922;43.622;1.476;2022-09-19T02:38:24;11.90;99.90
15646;DHT22;7922;43.622;1.476;2022-09-19T02:41:17;11.90;99.90
15646;DHT22;7922;43.622;1.476;2022-09-19T02:44:01;11.90;99.90
15646;DHT22;7922;43.622;1.476;2022-09-19T02:49:07;12.00;99.90
15646;DHT22;7922;43.622;1.476;2022-09-19T02:52:02;11.90;99.90
15646;DHT22;7922;43.622;1.476;2022-09-19T02:54:31;12.00;99.90
15646;DHT22;7922;43.622;1.476;2022-09-19T02:57:00;11.90;99.90
15646;DHT22;7922;43.622;1.476;2022-09-19T02:59:32;11.90;99.90
15646;DHT22;7922;43.622;1.476;2022-09-19T03:02:16;11.90;99.90
15646;DHT22;7922;43.622;1.476;2022-09-19T03:04:47;11.90;99.90
15646;DHT22;7922;43.622;1.476;2022-09-19T03:07:32;11.80;99.90
15646;DHT22;7922;43.622;1.476;2022-09-19T03:10:09;11.80;99.90
15646;DHT22;7922;43.622;1.476;2022-09-19T03:12:49;11.80;99.90
15646;DHT22;7922;43.622;1.476;2022-09-19T03:18:31;11.70;99.90
15646;DHT22;7922;43.622;1.476;2022-09-19T03:21:02;11.70;99.90
15646;DHT22;7922;43.622;1.476;2022-09-19T03:23:49;11.70;99.90
15646;DHT22;7922;43.622;1.476;2022-09-19T03:26:23;11.70;99.90
15646;DHT22;7922;43.622;1.476;2022-09-19T03:28:51;11.60;99.90
15646;DHT22;7922;43.622;1.476;2022-09-19T03:31:20;11.60;99.90
15646;DHT22;7922;43.622;1.476;2022-09-19T03:33:46;11.60;99.90
15646;DHT22;7922;43.622;1.476;2022-09-19T03:36:12;11.50;99.90
15646;DHT22;7922;43.622;1.476;2022-09-19T03:38:39;11.50;99.90
15646;DHT22;7922;43.622;1.476;2022-09-19T03:41:08;11.50;99.90
15646;DHT22;7922;43.622;1.476;2022-09-19T03:43:34;11.50;99.90
15646;DHT22;7922;43.622;1.476;2022-09-19T03:46:00;11.40;99.90
15646;DHT22;7922;43.622;1.476;2022-09-19T03:48:25;11.40;99.90
15646;DHT22;7922;43.622;1.476;2022-09-19T03:50:52;11.40;99.90
15646;DHT22;7922;43.622;1.476;2022-09-19T03:53:19;11.30;99.90
15646;DHT22;7922;43.622;1.476;2022-09-19T03:55:46;11.30;99.90
15646;DHT22;7922;43.622;1.476;2022-09-19T03:58:12;11.20;99.90
15646;DHT22;7922;43.622;1.476;2022-09-19T04:00:38;11.20;99.90
15646;DHT22;7922;43.622;1.476;2022-09-19T04:03:04;11.20;99.90
15646;DHT22;7922;43.622;1.476;2022-09-19T04:05:30;11.10;99.90
15646;DHT22;7922;43.622;1.476;2022-09-19T04:07:58;11.10;99.90
15646;DHT22;7922;43.622;1.476;2022-09-19T04:10:24;11.10;99.90
15646;DHT22;7922;43.622;1.476;2022-09-19T04:12:49;11.10;99.90
15646;DHT22;7922;43.622;1.476;2022-09-19T04:15:16;11.00;99.90
15646;DHT22;7922;43.622;1.476;2022-09-19T04:17:42;11.00;99.90
15646;DHT22;7922;43.622;1.476;2022-09-19T04:20:08;10.90;99.90
15646;DHT22;7922;43.622;1.476;2022-09-19T04:22:36;10.90;99.90
15646;DHT22;7922;43.622;1.476;2022-09-19T04:25:06;10.90;99.90
15646;DHT22;7922;43.622;1.476;2022-09-19T04:27:37;10.90;99.90
15646;DHT22;7922;43.622;1.476;2022-09-19T04:30:03;10.90;99.90
15646;DHT22;7922;43.622;1.476;2022-09-19T04:32:30;10.90;99.90
15646;DHT22;7922;43.622;1.476;2022-09-19T04:34:56;10.80;99.90
15646;DHT22;7922;43.622;1.476;2022-09-19T04:37:23;10.80;99.90
15646;DHT22;7922;43.622;1.476;2022-09-19T04:39:49;10.70;99.90
15646;DHT22;7922;43.622;1.476;2022-09-19T04:42:16;10.70;99.90
15646;DHT22;7922;43.622;1.476;2022-09-19T04:44:42;10.60;99.90
15646;DHT22;7922;43.622;1.476;2022-09-19T04:47:09;10.60;99.90
15646;DHT22;7922;43.622;1.476;2022-09-19T04:49:37;10.50;99.90
15646;DHT22;7922;43.622;1.476;2022-09-19T04:52:07;10.60;99.90
15646;DHT22;7922;43.622;1.476;2022-09-19T04:54:34;10.50;99.90
15646;DHT22;7922;43.622;1.476;2022-09-19T04:57:02;10.50;99.90
15646;DHT22;7922;43.622;1.476;2022-09-19T04:59:28;10.50;99.90
15646;DHT22;7922;43.622;1.476;2022-09-19T05:01:53;10.50;99.90
15646;DHT22;7922;43.622;1.476;2022-09-19T05:04:20;10.50;99.90
15646;DHT22;7922;43.622;1.476;2022-09-19T05:06:47;10.50;99.90
15646;DHT22;7922;43.622;1.476;2022-09-19T05:09:13;10.50;99.90
15646;DHT22;7922;43.622;1.476;2022-09-19T05:11:39;10.50;99.90
15646;DHT22;7922;43.622;1.476;2022-09-19T05:14:07;10.40;99.90
15646;DHT22;7922;43.622;1.476;2022-09-19T05:16:35;10.40;99.90
15646;DHT22;7922;43.622;1.476;2022-09-19T05:19:00;10.30;99.90
15646;DHT22;7922;43.622;1.476;2022-09-19T05:21:26;10.30;99.90
15646;DHT22;7922;43.622;1.476;2022-09-19T05:23:52;10.30;99.90
15646;DHT22;7922;43.622;1.476;2022-09-19T05:26:18;10.30;99.90
15646;DHT22;7922;43.622;1.476;2022-09-19T05:28:44;10.30;99.90
15646;DHT22;7922;43.622;1.476;2022-09-19T05:31:11;10.40;99.90
15646;DHT22;7922;43.622;1.476;2022-09-19T05:33:38;10.40;99.90
15646;DHT22;7922;43.622;1.476;2022-09-19T05:36:05;10.30;99.90
15646;DHT22;7922;43.622;1.476;2022-09-19T05:38:32;10.40;99.90
15646;DHT22;7922;43.622;1.476;2022-09-19T05:40:59;10.40;99.90
15646;DHT22;7922;43.622;1.476;2022-09-19T05:43:26;10.40;99.90
15646;DHT22;7922;43.622;1.476;2022-09-19T05:45:53;10.40;99.90
15646;DHT22;7922;43.622;1.476;2022-09-19T05:48:20;10.40;99.90
15646;DHT22;7922;43.622;1.476;2022-09-19T05:50:47;10.40;99.90
15646;DHT22;7922;43.622;1.476;2022-09-19T05:53:14;10.40;99.90
15646;DHT22;7922;43.622;1.476;2022-09-19T05:56:00;10.40;99.90
15646;DHT22;7922;43.622;1.476;2022-09-19T05:58:27;10.40;99.90
15646;DHT22;7922;43.622;1.476;2022-09-19T06:00:53;10.50;99.90
15646;DHT22;7922;43.622;1.476;2022-09-19T06:03:19;10.60;99.90
15646;DHT22;7922;43.622;1.476;2022-09-19T06:05:50;10.60;99.90
15646;DHT22;7922;43.622;1.476;2022-09-19T06:08:18;10.60;99.90
15646;DHT22;7922;43.622;1.476;2022-09-19T06:10:45;10.70;99.90
15646;DHT22;7922;43.622;1.476;2022-09-19T06:13:14;10.80;99.90
15646;DHT22;7922;43.622;1.476;2022-09-19T06:15:40;10.80;99.90
15646;DHT22;7922;43.622;1.476;2022-09-19T06:18:06;10.90;99.90
15646;DHT22;7922;43.622;1.476;2022-09-19T06:20:35;11.00;99.90
15646;DHT22;7922;43.622;1.476;2022-09-19T06:23:05;11.00;99.90
15646;DHT22;7922;43.622;1.476;2022-09-19T06:25:33;11.10;99.90
15646;DHT22;7922;43.622;1.476;2022-09-19T06:28:01;11.20;99.90
15646;DHT22;7922;43.622;1.476;2022-09-19T06:30:28;11.30;99.90
15646;DHT22;7922;43.622;1.476;2022-09-19T06:32:54;11.40;99.90
15646;DHT22;7922;43.622;1.476;2022-09-19T06:35:21;11.50;99.90
15646;DHT22;7922;43.622;1.476;2022-09-19T06:37:47;11.70;99.90
15646;DHT22;7922;43.622;1.476;2022-09-19T06:40:14;11.80;99.90
15646;DHT22;7922;43.622;1.476;2022-09-19T06:42:41;11.90;99.90
15646;DHT22;7922;43.622;1.476;2022-09-19T06:45:07;12.00;99.90
15646;DHT22;7922;43.622;1.476;2022-09-19T06:47:33;12.10;99.90
15646;DHT22;7922;43.622;1.476;2022-09-19T06:50:01;12.20;99.90
15646;DHT22;7922;43.622;1.476;2022-09-19T06:52:27;12.30;99.90
15646;DHT22;7922;43.622;1.476;2022-09-19T06:54:53;12.40;99.90
15646;DHT22;7922;43.622;1.476;2022-09-19T06:57:19;12.50;99.90
15646;DHT22;7922;43.622;1.476;2022-09-19T06:59:45;12.60;99.90
15646;DHT22;7922;43.622;1.476;2022-09-19T07:02:11;12.70;99.90
15646;DHT22;7922;43.622;1.476;2022-09-19T07:04:37;12.80;99.90
15646;DHT22;7922;43.622;1.476;2022-09-19T07:07:04;12.90;99.90
15646;DHT22;7922;43.622;1.476;2022-09-19T07:09:30;13.00;99.90
15646;DHT22;7922;43.622;1.476;2022-09-19T07:11:56;13.00;99.90
15646;DHT22;7922;43.622;1.476;2022-09-19T07:14:25;13.00;99.90
15646;DHT22;7922;43.622;1.476;2022-09-19T07:16:51;13.20;99.90
15646;DHT22;7922;43.622;1.476;2022-09-19T07:19:16;13.30;99.90
15646;DHT22;7922;43.622;1.476;2022-09-19T07:21:42;13.40;99.90
15646;DHT22;7922;43.622;1.476;2022-09-19T07:24:08;13.50;99.90
15646;DHT22;7922;43.622;1.476;2022-09-19T07:26:34;13.70;99.90
15646;DHT22;7922;43.622;1.476;2022-09-19T07:29:00;13.70;99.90
15646;DHT22;7922;43.622;1.476;2022-09-19T07:31:29;13.90;99.90
15646;DHT22;7922;43.622;1.476;2022-09-19T07:33:55;14.00;99.90
15646;DHT22;7922;43.622;1.476;2022-09-19T07:36:21;14.20;99.90
15646;DHT22;7922;43.622;1.476;2022-09-19T07:38:49;14.30;99.90
15646;DHT22;7922;43.622;1.476;2022-09-19T07:41:16;14.50;99.90
15646;DHT22;7922;43.622;1.476;2022-09-19T07:43:43;14.60;99.90
15646;DHT22;7922;43.622;1.476;2022-09-19T07:46:09;14.70;99.90
15646;DHT22;7922;43.622;1.476;2022-09-19T07:48:35;14.80;99.90
15646;DHT22;7922;43.622;1.476;2022-09-19T07:51:01;14.90;99.90
15646;DHT22;7922;43.622;1.476;2022-09-19T07:53:28;15.10;99.90
15646;DHT22;7922;43.622;1.476;2022-09-19T07:55:55;15.10;99.90
15646;DHT22;7922;43.622;1.476;2022-09-19T07:58:24;15.10;99.90
15646;DHT22;7922;43.622;1.476;2022-09-19T08:00:50;15.20;99.90
15646;DHT22;7922;43.622;1.476;2022-09-19T08:03:17;15.30;99.90
15646;DHT22;7922;43.622;1.476;2022-09-19T08:05:46;15.40;99.90
15646;DHT22;7922;43.622;1.476;2022-09-19T08:08:14;15.50;99.90
15646;DHT22;7922;43.622;1.476;2022-09-19T08:10:41;15.70;99.90
15646;DHT22;7922;43.622;1.476;2022-09-19T08:13:08;15.70;99.90
15646;DHT22;7922;43.622;1.476;2022-09-19T08:15:35;15.80;99.90
15646;DHT22;7922;43.622;1.476;2022-09-19T08:18:08;15.90;99.90
15646;DHT22;7922;43.622;1.476;2022-09-19T08:20:36;16.00;99.90
15646;DHT22;7922;43.622;1.476;2022-09-19T08:23:04;16.10;99.90
15646;DHT22;7922;43.622;1.476;2022-09-19T08:25:34;16.20;99.90
15646;DHT22;7922;43.622;1.476;2022-09-19T08:28:00;16.40;99.90
15646;DHT22;7922;43.622;1.476;2022-09-19T08:30:29;16.50;99.90
15646;DHT22;7922;43.622;1.476;2022-09-19T08:32:56;16.60;99.90
15646;DHT22;7922;43.622;1.476;2022-09-19T08:35:23;16.60;99.90
15646;DHT22;7922;43.622;1.476;2022-09-19T08:37:57;16.60;99.90
15646;DHT22;7922;43.622;1.476;2022-09-19T08:51:03;17.00;99.90
15646;DHT22;7922;43.622;1.476;2022-09-19T08:53:34;17.10;99.90
15646;DHT22;7922;43.622;1.476;2022-09-19T08:56:04;17.20;99.90
15646;DHT22;7922;43.622;1.476;2022-09-19T08:58:33;17.40;99.90
15646;DHT22;7922;43.622;1.476;2022-09-19T09:01:04;17.50;99.90
15646;DHT22;7922;43.622;1.476;2022-09-19T09:03:54;17.70;99.90
15646;DHT22;7922;43.622;1.476;2022-09-19T09:06:28;17.70;99.90
15646;DHT22;7922;43.622;1.476;2022-09-19T09:09:21;17.80;99.90
15646;DHT22;7922;43.622;1.476;2022-09-19T09:12:12;17.80;99.90
15646;DHT22;7922;43.622;1.476;2022-09-19T09:23:21;18.30;99.90
15646;DHT22;7922;43.622;1.476;2022-09-19T09:25:49;18.40;99.90
15646;DHT22;7922;43.622;1.476;2022-09-19T09:28:19;18.60;99.90
15646;DHT22;7922;43.622;1.476;2022-09-19T09:30:52;18.60;99.90
15646;DHT22;7922;43.622;1.476;2022-09-19T09:33:31;18.80;99.90
15646;DHT22;7922;43.622;1.476;2022-09-19T09:36:11;18.90;99.90
15646;DHT22;7922;43.622;1.476;2022-09-19T09:38:42;19.00;99.90
15646;DHT22;7922;43.622;1.476;2022-09-19T09:49:16;19.30;99.90
15646;DHT22;7922;43.622;1.476;2022-09-19T09:52:15;19.30;99.90
15646;DHT22;7922;43.622;1.476;2022-09-19T09:58:32;19.50;99.90
15646;DHT22;7922;43.622;1.476;2022-09-19T10:01:29;19.80;99.90
15646;DHT22;7922;43.622;1.476;2022-09-19T10:04:36;20.00;99.90
15646;DHT22;7922;43.622;1.476;2022-09-19T10:07:46;20.10;99.90
15646;DHT22;7922;43.622;1.476;2022-09-19T10:10:01;20.20;99.90
15646;DHT22;7922;43.622;1.476;2022-09-19T10:12:40;20.40;99.90
15646;DHT22;7922;43.622;1.476;2022-09-19T10:15:20;20.50;99.90
15646;DHT22;7922;43.622;1.476;2022-09-19T10:17:51;20.50;99.90
15646;DHT22;7922;43.622;1.476;2022-09-19T10:20:22;20.50;99.90
15646;DHT22;7922;43.622;1.476;2022-09-19T10:22:52;20.60;99.90
15646;DHT22;7922;43.622;1.476;2022-09-19T10:25:20;20.60;99.90
15646;DHT22;7922;43.622;1.476;2022-09-19T10:27:47;20.60;99.90
15646;DHT22;7922;43.622;1.476;2022-09-19T10:30:16;20.90;99.90
15646;DHT22;7922;43.622;1.476;2022-09-19T10:32:45;21.10;99.90
15646;DHT22;7922;43.622;1.476;2022-09-19T10:35:25;21.20;99.90
15646;DHT22;7922;43.622;1.476;2022-09-19T10:40:29;21.30;99.90
15646;DHT22;7922;43.622;1.476;2022-09-19T10:42:56;21.30;99.90
15646;DHT22;7922;43.622;1.476;2022-09-19T10:45:24;21.30;99.90
15646;DHT22;7922;43.622;1.476;2022-09-19T10:47:55;21.50;99.90
15646;DHT22;7922;43.622;1.476;2022-09-19T10:50:22;21.60;99.90
15646;DHT22;7922;43.622;1.476;2022-09-19T10:52:49;21.60;99.90
15646;DHT22;7922;43.622;1.476;2022-09-19T10:55:20;21.70;99.90
15646;DHT22;7922;43.622;1.476;2022-09-19T10:58:26;21.70;99.90
15646;DHT22;7922;43.622;1.476;2022-09-19T11:00:57;21.90;99.90
15646;DHT22;7922;43.622;1.476;2022-09-19T11:03:32;21.90;99.90
15646;DHT22;7922;43.622;1.476;2022-09-19T11:06:12;21.90;99.90
15646;DHT22;7922;43.622;1.476;2022-09-19T11:08:43;21.90;99.90
15646;DHT22;7922;43.622;1.476;2022-09-19T11:11:36;22.00;99.90
15646;DHT22;7922;43.622;1.476;2022-09-19T11:22:43;22.30;99.90
15646;DHT22;7922;43.622;1.476;2022-09-19T11:28:22;22.50;99.90
15646;DHT22;7922;43.622;1.476;2022-09-19T11:34:24;22.60;99.90
15646;DHT22;7922;43.622;1.476;2022-09-19T11:36:50;22.70;99.90
15646;DHT22;7922;43.622;1.476;2022-09-19T11:42:45;22.70;99.90
15646;DHT22;7922;43.622;1.476;2022-09-19T11:45:20;22.80;99.90
15646;DHT22;7922;43.622;1.476;2022-09-19T11:56:25;23.20;99.30
15646;DHT22;7922;43.622;1.476;2022-09-19T11:59:33;23.30;99.50
15646;DHT22;7922;43.622;1.476;2022-09-19T12:02:29;23.40;99.30
15646;DHT22;7922;43.622;1.476;2022-09-19T12:05:28;23.40;99.20
15646;DHT22;7922;43.622;1.476;2022-09-19T12:08:35;23.50;99.30
15646;DHT22;7922;43.622;1.476;2022-09-19T12:11:13;23.50;99.50
15646;DHT22;7922;43.622;1.476;2022-09-19T12:13:47;23.60;98.50
15646;DHT22;7922;43.622;1.476;2022-09-19T12:16:28;23.70;98.60
15646;DHT22;7922;43.622;1.476;2022-09-19T12:19:01;23.70;98.50
15646;DHT22;7922;43.622;1.476;2022-09-19T12:21:34;23.80;98.40
15646;DHT22;7922;43.622;1.476;2022-09-19T12:24:06;23.80;96.60
15646;DHT22;7922;43.622;1.476;2022-09-19T12:27:10;23.90;97.50
15646;DHT22;7922;43.622;1.476;2022-09-19T12:35:36;24.00;95.30
15646;DHT22;7922;43.622;1.476;2022-09-19T12:38:36;24.10;94.20
15646;DHT22;7922;43.622;1.476;2022-09-19T12:41:20;24.20;95.40
15646;DHT22;7922;43.622;1.476;2022-09-19T12:44:03;24.20;94.50
15646;DHT22;7922;43.622;1.476;2022-09-19T12:52:12;24.60;93.70
15646;DHT22;7922;43.622;1.476;2022-09-19T12:54:59;24.60;93.50
15646;DHT22;7922;43.622;1.476;2022-09-19T12:57:38;24.50;94.30
15646;DHT22;7922;43.622;1.476;2022-09-19T13:00:07;24.50;94.20
15646;DHT22;7922;43.622;1.476;2022-09-19T13:02:44;25.00;92.70
15646;DHT22;7922;43.622;1.476;2022-09-19T13:08:03;24.90;91.50
15646;DHT22;7922;43.622;1.476;2022-09-19T13:13:35;25.10;90.00
15646;DHT22;7922;43.622;1.476;2022-09-19T13:16:06;25.20;90.40
15646;DHT22;7922;43.622;1.476;2022-09-19T13:18:33;25.20;89.90
15646;DHT22;7922;43.622;1.476;2022-09-19T13:21:19;25.10;89.80
15646;DHT22;7922;43.622;1.476;2022-09-19T13:24:05;25.00;90.30
15646;DHT22;7922;43.622;1.476;2022-09-19T13:26:34;25.10;89.10
15646;DHT22;7922;43.622;1.476;2022-09-19T13:34:35;25.20;89.30
15646;DHT22;7922;43.622;1.476;2022-09-19T13:53:44;25.30;87.10
15646;DHT22;7922;43.622;1.476;2022-09-19T13:56:33;25.20;86.40
15646;DHT22;7922;43.622;1.476;2022-09-19T14:01:39;25.20;84.90
15646;DHT22;7922;43.622;1.476;2022-09-19T14:04:15;25.20;85.40
15646;DHT22;7922;43.622;1.476;2022-09-19T14:07:02;25.30;84.10
15646;DHT22;7922;43.622;1.476;2022-09-19T14:09:36;25.30;82.10
15646;DHT22;7922;43.622;1.476;2022-09-19T14:14:58;25.00;82.70
15646;DHT22;7922;43.622;1.476;2022-09-19T14:17:27;25.10;82.50
15646;DHT22;7922;43.622;1.476;2022-09-19T14:19:56;25.00;82.00
15646;DHT22;7922;43.622;1.476;2022-09-19T14:28:09;25.00;80.90
15646;DHT22;7922;43.622;1.476;2022-09-19T14:30:59;25.20;79.00
15646;DHT22;7922;43.622;1.476;2022-09-19T14:39:13;25.30;75.70
15646;DHT22;7922;43.622;1.476;2022-09-19T14:42:22;25.10;75.80
15646;DHT22;7922;43.622;1.476;2022-09-19T14:47:50;25.30;75.30
15646;DHT22;7922;43.622;1.476;2022-09-19T14:50:26;25.20;75.00
15646;DHT22;7922;43.622;1.476;2022-09-19T14:55:56;25.20;73.20
15646;DHT22;7922;43.622;1.476;2022-09-19T14:58:29;25.10;72.20
15646;DHT22;7922;43.622;1.476;2022-09-19T15:01:36;25.00;72.50
15646;DHT22;7922;43.622;1.476;2022-09-19T15:04:08;25.00;71.90
15646;DHT22;7922;43.622;1.476;2022-09-19T15:06:48;25.00;71.60
15646;DHT22;7922;43.622;1.476;2022-09-19T15:09:20;25.10;70.90
15646;DHT22;7922;43.622;1.476;2022-09-19T15:11:50;25.20;70.20
15646;DHT22;7922;43.622;1.476;2022-09-19T15:14:16;25.20;69.20
15646;DHT22;7922;43.622;1.476;2022-09-19T15:16:44;25.20;68.60
15646;DHT22;7922;43.622;1.476;2022-09-19T15:19:10;25.10;68.10
15646;DHT22;7922;43.622;1.476;2022-09-19T15:21:37;25.00;70.60
15646;DHT22;7922;43.622;1.476;2022-09-19T15:24:04;25.10;71.40
15646;DHT22;7922;43.622;1.476;2022-09-19T15:26:41;25.20;72.60
15646;DHT22;7922;43.622;1.476;2022-09-19T15:29:28;25.20;72.30
15646;DHT22;7922;43.622;1.476;2022-09-19T15:32:28;25.20;72.50
15646;DHT22;7922;43.622;1.476;2022-09-19T15:34:57;25.20;72.30
15646;DHT22;7922;43.622;1.476;2022-09-19T15:37:25;25.20;73.30
15646;DHT22;7922;43.622;1.476;2022-09-19T15:39:57;25.20;73.20
15646;DHT22;7922;43.622;1.476;2022-09-19T15:42:25;25.20;70.70
15646;DHT22;7922;43.622;1.476;2022-09-19T15:44:53;25.20;70.50
15646;DHT22;7922;43.622;1.476;2022-09-19T15:47:20;25.20;71.80
15646;DHT22;7922;43.622;1.476;2022-09-19T15:49:57;25.20;73.70
15646;DHT22;7922;43.622;1.476;2022-09-19T15:52:32;25.00;74.30
15646;DHT22;7922;43.622;1.476;2022-09-19T15:54:59;25.20;70.70
15646;DHT22;7922;43.622;1.476;2022-09-19T15:57:31;25.20;67.70
15646;DHT22;7922;43.622;1.476;2022-09-19T16:00:05;25.20;67.90
15646;DHT22;7922;43.622;1.476;2022-09-19T16:02:36;25.20;68.00
15646;DHT22;7922;43.622;1.476;2022-09-19T16:05:15;25.20;67.50
15646;DHT22;7922;43.622;1.476;2022-09-19T16:07:46;25.00;67.90
15646;DHT22;7922;43.622;1.476;2022-09-19T16:10:43;25.00;67.00
15646;DHT22;7922;43.622;1.476;2022-09-19T16:13:38;24.90;68.40
15646;DHT22;7922;43.622;1.476;2022-09-19T16:16:35;24.70;66.30
15646;DHT22;7922;43.622;1.476;2022-09-19T16:19:02;24.70;66.50
15646;DHT22;7922;43.622;1.476;2022-09-19T16:21:40;24.80;65.70
15646;DHT22;7922;43.622;1.476;2022-09-19T16:24:13;24.70;65.30
15646;DHT22;7922;43.622;1.476;2022-09-19T16:26:40;24.60;64.80
15646;DHT22;7922;43.622;1.476;2022-09-19T16:29:10;24.50;64.20
15646;DHT22;7922;43.622;1.476;2022-09-19T16:31:41;24.40;64.50
15646;DHT22;7922;43.622;1.476;2022-09-19T16:34:36;24.40;63.70
15646;DHT22;7922;43.622;1.476;2022-09-19T16:37:04;24.40;62.20
15646;DHT22;7922;43.622;1.476;2022-09-19T16:47:24;24.40;65.80
15646;DHT22;7922;43.622;1.476;2022-09-19T16:49:52;24.50;66.90
15646;DHT22;7922;43.622;1.476;2022-09-19T16:52:24;24.50;68.60
15646;DHT22;7922;43.622;1.476;2022-09-19T16:54:51;24.30;70.40
15646;DHT22;7922;43.622;1.476;2022-09-19T16:57:18;24.20;70.90
15646;DHT22;7922;43.622;1.476;2022-09-19T16:59:46;24.20;70.70
15646;DHT22;7922;43.622;1.476;2022-09-19T17:02:26;24.30;70.70
15646;DHT22;7922;43.622;1.476;2022-09-19T17:04:52;24.20;70.30
15646;DHT22;7922;43.622;1.476;2022-09-19T17:07:18;24.20;70.20
15646;DHT22;7922;43.622;1.476;2022-09-19T17:09:49;24.20;70.90
15646;DHT22;7922;43.622;1.476;2022-09-19T17:12:17;24.10;68.00
15646;DHT22;7922;43.622;1.476;2022-09-19T17:14:43;24.10;67.70
15646;DHT22;7922;43.622;1.476;2022-09-19T17:17:10;24.00;68.10
15646;DHT22;7922;43.622;1.476;2022-09-19T17:19:40;24.00;67.10
15646;DHT22;7922;43.622;1.476;2022-09-19T17:22:07;23.90;67.50
15646;DHT22;7922;43.622;1.476;2022-09-19T17:24:35;23.70;67.90
15646;DHT22;7922;43.622;1.476;2022-09-19T17:27:01;23.70;67.50
15646;DHT22;7922;43.622;1.476;2022-09-19T17:29:27;23.70;68.00
15646;DHT22;7922;43.622;1.476;2022-09-19T17:31:53;23.70;67.70
15646;DHT22;7922;43.622;1.476;2022-09-19T17:34:19;23.70;67.90
15646;DHT22;7922;43.622;1.476;2022-09-19T17:36:44;23.50;68.20
15646;DHT22;7922;43.622;1.476;2022-09-19T17:39:10;23.40;69.30
15646;DHT22;7922;43.622;1.476;2022-09-19T17:41:36;23.30;68.70
15646;DHT22;7922;43.622;1.476;2022-09-19T17:44:03;23.10;69.80
15646;DHT22;7922;43.622;1.476;2022-09-19T17:46:31;22.90;70.30
15646;DHT22;7922;43.622;1.476;2022-09-19T17:48:57;22.80;71.50
15646;DHT22;7922;43.622;1.476;2022-09-19T17:51:22;22.70;70.70
15646;DHT22;7922;43.622;1.476;2022-09-19T17:53:49;22.70;71.30
15646;DHT22;7922;43.622;1.476;2022-09-19T17:56:18;22.60;72.50
15646;DHT22;7922;43.622;1.476;2022-09-19T17:58:45;22.50;72.00
15646;DHT22;7922;43.622;1.476;2022-09-19T18:01:19;22.30;72.40
15646;DHT22;7922;43.622;1.476;2022-09-19T18:04:04;22.20;72.60
15646;DHT22;7922;43.622;1.476;2022-09-19T18:06:30;22.20;73.30
15646;DHT22;7922;43.622;1.476;2022-09-19T18:08:59;22.00;74.00
15646;DHT22;7922;43.622;1.476;2022-09-19T18:11:25;21.80;74.70
15646;DHT22;7922;43.622;1.476;2022-09-19T18:13:51;21.60;75.70
15646;DHT22;7922;43.622;1.476;2022-09-19T18:16:21;21.50;76.40
15646;DHT22;7922;43.622;1.476;2022-09-19T18:18:50;21.30;77.20
15646;DHT22;7922;43.622;1.476;2022-09-19T18:21:15;21.10;77.90
15646;DHT22;7922;43.622;1.476;2022-09-19T18:23:42;21.00;78.50
15646;DHT22;7922;43.622;1.476;2022-09-19T18:26:13;20.90;79.00
15646;DHT22;7922;43.622;1.476;2022-09-19T18:28:43;20.80;79.80
15646;DHT22;7922;43.622;1.476;2022-09-19T18:31:10;20.80;79.50
15646;DHT22;7922;43.622;1.476;2022-09-19T18:33:39;20.90;79.80
15646;DHT22;7922;43.622;1.476;2022-09-19T18:36:09;20.80;80.10
15646;DHT22;7922;43.622;1.476;2022-09-19T18:38:36;20.80;80.40
15646;DHT22;7922;43.622;1.476;2022-09-19T18:41:05;20.90;80.40
15646;DHT22;7922;43.622;1.476;2022-09-19T18:43:31;21.00;80.10
15646;DHT22;7922;43.622;1.476;2022-09-19T18:46:05;20.80;80.70
15646;DHT22;7922;43.622;1.476;2022-09-19T18:48:32;20.80;80.70
15646;DHT22;7922;43.622;1.476;2022-09-19T18:50:57;20.70;81.20
15646;DHT22;7922;43.622;1.476;2022-09-19T18:53:23;20.50;81.90
15646;DHT22;7922;43.622;1.476;2022-09-19T18:55:54;20.50;82.30
15646;DHT22;7922;43.622;1.476;2022-09-19T18:58:20;20.30;83.30
15646;DHT22;7922;43.622;1.476;2022-09-19T19:00:46;20.10;84.50
15646;DHT22;7922;43.622;1.476;2022-09-19T19:03:13;20.00;84.90
15646;DHT22;7922;43.622;1.476;2022-09-19T19:05:46;19.80;86.50